Time;durP1;ratioP1;P1;durP2;ratioP2;P2;SDS_P1;SDS_P2;PMS_P1;PMS_P2;Temp;Humidity;BMP_temperature;BMP_pressure;BME280_temperature;BME280_humidity;BME280_pressure;Samples;Min_cycle;Max_cycle;Signal;HPM_P1;HPM_P2
2024/04/22 00:00:07;;;;;;;;;0.00;0.00;;;;;13.65;57.92;100786.03;146617;603;46016;-73
2024/04/22 00:03:04;;;;;;;;;1.00;1.00;;;;;13.65;57.98;100785.16;146622;571;48008;-74
2024/04/22 00:06:07;;;;;;;;;0.75;0.75;;;;;13.64;58.05;100792.06;146616;568;46016;-72
2024/04/22 00:09:08;;;;;;;;;0.00;0.00;;;;;13.60;58.49;100790.16;146618;574;46008;-73
2024/04/22 00:12:08;;;;;;;;;2.00;1.00;;;;;13.54;58.34;100793.41;146616;645;46016;-72
2024/04/22 00:15:18;;;;;;;;;1.00;0.00;;;;;13.50;58.13;100781.09;146623;651;47020;-72
2024/04/22 00:18:16;;;;;;;;;1.00;1.00;;;;;13.46;58.93;100791.31;146616;592;46016;-75
2024/04/22 00:21:15;;;;;;;;;1.00;1.00;;;;;13.44;58.81;100799.09;146620;630;46020;-76
2024/04/22 00:24:19;;;;;;;;;1.00;1.00;;;;;13.40;59.30;100807.63;146616;606;46017;-78
2024/04/22 00:27:17;;;;;;;;;1.00;1.00;;;;;13.37;59.41;100800.56;146619;639;47020;-76
2024/04/22 00:30:23;;;;;;;;;0.75;0.75;;;;;13.37;59.43;100805.75;146617;581;46011;-80
2024/04/22 00:33:20;;;;;;;;;1.50;1.50;;;;;13.37;59.16;100808.38;146620;609;46020;-80
2024/04/22 00:36:19;;;;;;;;;1.25;0.75;;;;;13.39;59.48;100806.72;146616;713;47016;-88
2024/04/22 00:39:14;;;;;;;;;1.00;1.00;;;;;13.42;59.58;100802.44;146618;711;46010;-84
2024/04/22 00:42:12;;;;;;;;;1.50;0.50;;;;;13.43;60.06;100805.12;146615;586;46016;-84
2024/04/22 00:45:11;;;;;;;;;1.25;1.25;;;;;13.40;59.78;100802.41;146621;604;46008;-83
2024/04/22 00:48:06;;;;;;;;;2.50;1.25;;;;;13.37;59.83;100800.56;146617;685;46016;-78
2024/04/22 00:51:04;;;;;;;;;2.00;2.00;;;;;13.36;60.15;100813.50;146621;617;46020;-78
2024/04/22 00:54:12;;;;;;;;;1.00;1.00;;;;;13.37;60.49;100810.09;146616;656;47010;-76
2024/04/22 00:57:09;;;;;;;;;1.50;1.50;;;;;13.39;60.19;100811.94;146621;569;46008;-77
2024/04/22 01:00:02;;;;;;;;;2.00;2.00;;;;;13.42;59.94;100813.75;146614;622;46016;-77
2024/04/22 01:02:59;;;;;;;;;1.00;1.00;;;;;13.45;59.58;100810.37;146621;583;46020;-78
2024/04/22 01:05:54;;;;;;;;;2.75;2.00;;;;;13.43;59.57;100815.56;146618;695;46032;-73
2024/04/22 01:08:49;;;;;;;;;2.00;2.00;;;;;13.38;60.78;100817.94;146618;600;46021;-72
2024/04/22 01:11:41;;;;;;;;;2.00;2.00;;;;;13.31;60.67;100810.72;146615;642;48010;-75
2024/04/22 01:14:34;;;;;;;;;1.00;1.00;;;;;13.23;60.48;100808.59;146619;602;46020;-75
2024/04/22 01:17:55;;;;;;;;;0.75;0.00;;;;;12.50;58.44;100697.97;146613;744;47012;-77
2024/04/22 01:20:49;;;;;;;;;0.75;0.00;;;;;13.13;61.06;100815.12;146619;564;47008;-75
2024/04/22 01:24:00;;;;;;;;;1.00;1.00;;;;;13.07;60.06;100817.47;146619;609;47025;-73
2024/04/22 01:27:07;;;;;;;;;1.75;0.50;;;;;13.04;60.84;100806.91;146623;594;46008;-73
2024/04/22 01:30:17;;;;;;;;;0.00;0.00;;;;;13.02;59.35;100821.56;146616;578;46017;-72
2024/04/22 01:33:09;;;;;;;;;0.00;0.00;;;;;13.05;61.57;100821.69;146618;566;47008;-75
2024/04/22 01:36:20;;;;;;;;;2.00;1.50;;;;;13.04;60.19;100819.94;146616;663;46909;-76
2024/04/22 01:39:16;;;;;;;;;1.00;1.00;;;;;13.07;60.54;100830.47;146621;696;47008;-75
2024/04/22 01:42:10;;;;;;;;;0.00;0.00;;;;;13.06;60.95;100827.00;146619;726;46030;-77
2024/04/22 01:45:16;;;;;;;;;0.00;0.00;;;;;13.07;60.08;100833.97;146620;571;46021;-74
2024/04/22 01:48:22;;;;;;;;;0.00;0.00;;;;;13.06;60.10;100834.81;146616;676;46016;-74
2024/04/22 01:51:21;;;;;;;;;0.00;0.00;;;;;13.05;60.76;100840.84;146621;599;46021;-77
2024/04/22 01:54:18;;;;;;;;;0.00;0.00;;;;;13.00;61.21;100828.44;146619;565;47010;-77
2024/04/22 01:57:32;;;;;;;;;0.00;0.00;;;;;12.97;59.82;100837.00;146620;575;47008;-77
2024/04/22 02:00:29;;;;;;;;;0.50;0.50;;;;;12.95;61.70;100839.53;146618;624;46016;-77
2024/04/22 02:03:24;;;;;;;;;1.50;0.00;;;;;12.92;61.90;100839.41;146621;611;47008;-77
2024/04/22 02:06:16;;;;;;;;;0.00;0.00;;;;;12.89;62.13;100835.78;146610;569;47016;-77
2024/04/22 02:09:10;;;;;;;;;0.50;0.50;;;;;12.86;61.54;100836.53;146635;585;45010;-77
2024/04/22 02:12:03;;;;;;;;;1.50;1.25;;;;;12.87;61.61;100833.13;146631;595;46016;-77
2024/04/22 02:14:58;;;;;;;;;0.25;0.00;;;;;12.90;61.80;100837.56;146636;597;45021;-78
2024/04/22 02:18:06;;;;;;;;;0.50;0.50;;;;;12.91;61.45;100842.81;146627;611;46010;-75
2024/04/22 02:21:21;;;;;;;;;0.75;0.75;;;;;11.99;60.22;100679.25;146630;717;46008;-77
2024/04/22 02:24:18;;;;;;;;;0.00;0.00;;;;;12.94;61.73;100845.56;146633;564;45016;-77
2024/04/22 02:27:14;;;;;;;;;0.25;0.25;;;;;12.92;61.68;100849.81;146635;603;46008;-72
2024/04/22 02:30:16;;;;;;;;;0.25;0.25;;;;;12.92;61.91;100841.13;146636;569;45910;-74
2024/04/22 02:33:34;;;;;;;;;;;;;;;;;;;;;
2024/04/22 02:36:47;;;;;;;;;0.50;0.50;;;;;12.89;62.31;100860.06;146633;632;45910;-76
2024/04/22 02:39:48;;;;;;;;;0.25;0.25;;;;;12.87;61.96;100869.56;146638;577;45020;-76
2024/04/22 02:42:44;;;;;;;;;0.00;0.00;;;;;12.88;62.04;100854.81;146631;672;46912;-76
2024/04/22 02:45:37;;;;;;;;;0.00;0.00;;;;;12.91;61.79;100850.63;146633;586;46017;-80
2024/04/22 02:48:39;;;;;;;;;0.00;0.00;;;;;12.95;61.80;100849.94;146630;574;46010;-80
2024/04/22 02:51:46;;;;;;;;;1.00;1.00;;;;;12.99;61.64;100847.47;146629;586;47008;-77
2024/04/22 02:54:50;;;;;;;;;0.00;0.00;;;;;13.00;60.72;100855.34;146630;708;45016;-73
2024/04/22 02:57:57;;;;;;;;;0.00;0.00;;;;;12.25;60.13;100730.69;146636;585;45020;-72
2024/04/22 03:00:58;;;;;;;;;0.00;0.00;;;;;12.92;60.17;100852.41;146633;632;46030;-72
2024/04/22 03:04:01;;;;;;;;;0.00;0.00;;;;;12.92;61.46;100849.81;146631;588;47008;-70
2024/04/22 03:07:07;;;;;;;;;0.75;0.75;;;;;12.88;62.16;100847.91;146629;631;45912;-70
2024/04/22 03:10:13;;;;;;;;;0.00;0.00;;;;;12.88;60.66;100860.03;146619;597;47010;-76
2024/04/22 03:13:17;;;;;;;;;0.00;0.00;;;;;12.88;60.49;100873.03;146615;578;48010;-76
2024/04/22 03:16:15;;;;;;;;;0.00;0.00;;;;;12.86;61.73;100869.47;146621;577;46020;-77
2024/04/22 03:19:15;;;;;;;;;1.00;1.00;;;;;12.86;61.69;100882.47;146613;574;46911;-74
2024/04/22 03:22:10;;;;;;;;;2.00;1.00;;;;;12.83;61.71;100898.84;146618;591;46010;-76
2024/04/22 03:25:11;;;;;;;;;0.00;0.00;;;;;12.82;61.64;100898.78;146615;621;46012;-77
2024/04/22 03:28:13;;;;;;;;;0.25;0.00;;;;;12.76;62.42;100896.78;146623;649;46008;-77
2024/04/22 03:31:31;;;;;;;;;0.75;0.75;;;;;11.91;60.48;100769.84;146616;632;46012;-75
2024/04/22 03:34:36;;;;;;;;;1.25;1.00;;;;;12.64;61.79;100917.06;146618;706;47021;-77
2024/04/22 03:37:53;;;;;;;;;1.00;0.25;;;;;12.58;61.82;100919.38;146615;605;46016;-78
2024/04/22 03:40:58;;;;;;;;;1.00;1.00;;;;;12.55;62.72;100927.03;146622;594;46049;-68
2024/04/22 03:44:01;;;;;;;;;1.00;1.00;;;;;12.52;62.35;100932.09;146616;563;46010;-69
2024/04/22 03:50:37;;;;;;;;;2.25;2.25;;;;;12.39;62.75;100925.44;146614;609;47010;-76
2024/04/22 03:54:12;;;;;;;;;4.00;2.50;;;;;11.62;61.98;100802.22;146613;621;46008;-77
2024/04/22 03:57:26;;;;;;;;;1.50;1.00;;;;;12.44;61.93;100947.34;146618;587;46016;-77
2024/04/22 04:00:32;;;;;;;;;0.25;0.00;;;;;12.55;64.03;100940.03;146618;702;47020;-77
2024/04/22 04:03:48;;;;;;;;;;;;;;;;;;;;;
2024/04/22 04:06:57;;;;;;;;;;;;;;;;;;;;;
2024/04/22 04:09:52;;;;;;;;;0.75;0.75;;;;;13.28;64.01;100948.63;146617;680;46017;-77
2024/04/22 04:12:52;;;;;;;;;2.25;0.00;;;;;13.53;61.93;100955.78;146621;692;46008;-79
2024/04/22 04:16:10;;;;;;;;;0.75;0.75;;;;;13.72;62.34;100948.75;146616;662;46016;-78
2024/04/22 04:19:08;;;;;;;;;1.00;0.25;;;;;13.91;61.30;100951.28;146621;563;46021;-79
2024/04/22 04:22:02;;;;;;;;;1.50;1.00;;;;;14.06;61.47;100958.84;146616;564;46010;-80
2024/04/22 04:25:01;;;;;;;;;2.00;1.00;;;;;14.21;59.28;100954.25;146613;632;47008;-79
2024/04/22 04:27:58;;;;;;;;;3.00;2.75;;;;;14.35;59.89;100969.56;146615;743;46016;-75
2024/04/22 04:31:07;;;;;;;;;1.00;1.00;;;;;14.49;57.76;100981.44;146622;587;46020;-75
2024/04/22 04:34:24;;;;;;;;;;;;;;;;;;;;;
2024/04/22 04:37:21;;;;;;;;;4.25;2.25;;;;;14.73;59.52;100998.06;146611;576;46020;-73
2024/04/22 04:40:18;;;;;;;;;2.00;1.25;;;;;14.80;59.27;101001.81;146618;639;46017;-74
2024/04/22 04:43:23;;;;;;;;;1.00;0.00;;;;;14.90;58.19;101000.44;146616;565;46020;-76
2024/04/22 04:46:33;;;;;;;;;0.00;0.00;;;;;15.01;58.09;101004.34;146617;583;46016;-79
2024/04/22 04:49:36;;;;;;;;;0.25;0.00;;;;;15.07;59.48;100995.84;146619;578;47020;-81
2024/04/22 04:52:35;;;;;;;;;3.00;2.00;;;;;15.15;58.71;101010.09;146616;611;46010;-83
2024/04/22 04:56:01;;;;;;;;;13.50;10.50;;;;;15.24;57.64;101011.31;146613;594;46020;-83
2024/04/22 04:59:19;;;;;;;;;10.25;8.25;;;;;15.31;57.94;101015.03;146609;570;46016;-83
2024/04/22 05:02:17;;;;;;;;;13.75;13.00;;;;;15.39;58.20;101018.84;146619;578;46022;-81
2024/04/22 05:05:27;;;;;;;;;14.50;12.50;;;;;15.46;57.37;101017.34;146607;614;47012;-81
2024/04/22 05:08:38;;;;;;;;;13.75;12.25;;;;;15.54;57.98;101015.88;146611;580;46020;-80
2024/04/22 05:11:52;;;;;;;;;8.50;8.00;;;;;15.67;55.62;101025.09;146608;598;47016;-80
2024/04/22 05:14:58;;;;;;;;;10.75;8.00;;;;;15.79;56.11;101027.22;146620;650;46020;-81
2024/04/22 05:18:01;;;;;;;;;7.50;7.50;;;;;15.90;55.52;101016.31;146615;569;46031;-80
2024/04/22 05:20:57;;;;;;;;;12.25;11.00;;;;;16.03;56.72;101017.59;146620;601;47020;-78
2024/04/22 05:23:59;;;;;;;;;10.50;10.50;;;;;16.17;56.33;101021.59;146607;598;47016;-79
2024/04/22 05:26:54;;;;;;;;;11.00;9.75;;;;;16.01;56.13;100982.69;146606;564;46020;-77
2024/04/22 05:30:05;;;;;;;;;11.25;9.75;;;;;15.52;54.66;100880.78;146617;630;46022;-77
2024/04/22 05:36:09;;;;;;;;;10.25;7.75;;;;;16.43;54.75;101010.19;146617;613;46020;-78
2024/04/22 05:36:18;;;;;;;;;7.75;6.50;;;;;16.45;55.61;101008.47;146615;701;46016;-75
2024/04/22 05:38:58;;;;;;;;;97.75;96.75;;;;;16.39;55.62;101011.81;146710;567;45051;-72
2024/04/22 05:41:58;;;;;;;;;8.25;8.00;;;;;16.34;55.76;101010.78;146616;614;47016;-72
2024/04/22 05:45:14;;;;;;;;;7.75;5.25;;;;;16.32;55.22;101017.66;146620;595;46020;-72
2024/04/22 05:48:18;;;;;;;;;7.25;5.25;;;;;16.31;55.50;101031.59;146614;613;46913;-72
2024/04/22 05:51:30;;;;;;;;;4.00;4.00;;;;;16.27;55.05;101032.34;146619;571;47010;-73
2024/04/22 05:54:34;;;;;;;;;8.00;5.75;;;;;16.25;55.98;101034.03;146617;655;46914;-72
2024/04/22 05:57:48;;;;;;;;;;;;;;;;;;;;;
2024/04/22 06:01:00;;;;;;;;;4.00;4.00;;;;;16.35;54.70;101041.31;146616;571;48013;-69
2024/04/22 06:04:18;;;;;;;;;4.75;4.00;;;;;16.45;55.92;101027.72;146618;569;46020;-70
2024/04/22 06:07:13;;;;;;;;;4.75;4.75;;;;;16.65;54.84;101019.59;146617;707;47012;-70
2024/04/22 06:10:13;;;;;;;;;4.75;4.50;;;;;16.78;54.54;101008.69;146623;686;46010;-69
2024/04/22 06:13:18;;;;;;;;;6.00;6.00;;;;;16.88;53.78;101012.47;146617;589;46016;-70
2024/04/22 06:16:23;;;;;;;;;11.25;9.00;;;;;16.92;53.66;101004.78;146620;575;46020;-71
2024/04/22 06:19:31;;;;;;;;;10.25;7.75;;;;;16.62;52.86;100940.12;146617;579;47012;-71
2024/04/22 06:22:27;;;;;;;;;6.25;5.50;;;;;16.97;54.92;100997.03;146619;569;47010;-71
2024/04/22 06:25:49;;;;;;;;;;;;;;;;;;;;;
2024/04/22 06:28:50;;;;;;;;;4.25;3.25;;;;;16.89;55.42;100988.97;146619;641;46020;-72
2024/04/22 06:32:07;;;;;;;;;4.00;3.00;;;;;16.82;55.84;100984.38;146615;679;47017;-71
2024/04/22 06:35:37;;;;;;;;;4.25;4.25;;;;;16.81;55.51;100996.56;146622;672;46010;-71
2024/04/22 06:39:02;;;;;;;;;;;;;;;;;;;;;
2024/04/22 06:42:21;;;;;;;;;4.00;3.25;;;;;16.92;53.55;101017.88;146619;582;47010;-69
2024/04/22 06:45:25;;;;;;;;;5.75;4.25;;;;;16.91;55.50;101010.84;146617;697;46017;-69
2024/04/22 06:48:26;;;;;;;;;4.00;3.75;;;;;17.07;54.91;101047.16;146623;571;46046;-70
2024/04/22 06:51:34;;;;;;;;;8.00;4.50;;;;;16.88;55.39;100997.66;146621;580;46015;-71
2024/04/22 06:54:41;;;;;;;;;5.00;4.67;;;;;17.28;54.13;101052.09;146619;578;46021;-70
2024/04/22 06:57:55;;;;;;;;;6.00;4.00;;;;;17.38;54.67;101037.53;146618;583;46016;-70
2024/04/22 07:00:59;;;;;;;;;4.25;3.75;;;;;17.48;53.67;101038.72;146619;597;47020;-70
2024/04/22 07:04:00;;;;;;;;;5.00;4.33;;;;;17.48;53.25;101050.06;146620;611;47012;-70
2024/04/22 07:07:19;;;;;;;;;9.00;6.00;;;;;17.49;53.19;101057.09;146621;580;46020;-70
2024/04/22 07:10:30;;;;;;;;;6.75;5.00;;;;;17.49;54.04;101054.47;146617;566;47016;-71
2024/04/22 07:13:11;;;;;;;;;8.25;7.25;;;;;17.51;54.72;101044.03;146705;570;46023;-70
2024/04/22 07:16:34;;;;;;;;;;;;;;;;;;;;;
2024/04/22 07:19:42;;;;;;;;;5.00;5.00;;;;;17.49;53.21;101043.97;146630;575;46022;-72
2024/04/22 07:22:53;;;;;;;;;7.25;6.00;;;;;17.51;53.89;101047.53;146620;576;47016;-72
2024/04/22 07:26:11;;;;;;;;;10.00;7.75;;;;;17.57;53.82;101057.31;146629;668;46020;-71
2024/04/22 07:29:25;;;;;;;;;;;;;;;;;;;;;
2024/04/22 07:32:26;;;;;;;;;3.50;3.00;;;;;17.68;53.85;101044.50;146632;671;46010;-69
2024/04/22 07:35:32;;;;;;;;;3.75;3.25;;;;;17.78;53.92;101051.78;146624;570;46016;-69
2024/04/22 07:38:44;;;;;;;;;4.75;2.75;;;;;17.93;53.58;101057.44;146628;569;47010;-69
2024/04/22 07:41:46;;;;;;;;;1.00;1.00;;;;;18.04;53.77;101063.00;146627;628;46012;-69
2024/04/22 07:44:44;;;;;;;;;4.67;3.00;;;;;18.05;53.68;101063.87;146630;595;46020;-70
2024/04/22 07:47:47;;;;;;;;;3.00;2.67;;;;;18.03;52.91;101063.81;146624;637;46017;-69
2024/04/22 07:50:47;;;;;;;;;2.00;2.00;;;;;18.02;53.63;101063.81;146629;694;46021;-69
2024/04/22 07:53:50;;;;;;;;;3.00;2.00;;;;;18.04;52.93;101057.75;146625;591;47916;-75
2024/04/22 07:56:52;;;;;;;;;3.00;2.00;;;;;18.09;53.81;101060.47;146631;650;46021;-69
2024/04/22 08:00:08;;;;;;;;;;;;;;;;;;;;;
2024/04/22 08:03:22;;;;;;;;;1.00;0.00;;;;;18.09;52.72;101043.00;146623;590;47014;-73
2024/04/22 08:06:25;;;;;;;;;1.00;1.00;;;;;18.06;52.25;101045.53;146623;610;46021;-71
2024/04/22 08:09:20;;;;;;;;;0.00;0.00;;;;;18.00;52.12;101034.88;146623;584;47012;-71
2024/04/22 08:12:27;;;;;;;;;1.00;1.00;;;;;17.89;53.02;101018.00;146631;601;47010;-72
2024/04/22 08:15:35;;;;;;;;;1.00;1.00;;;;;17.80;53.62;101025.62;146620;616;46016;-74
2024/04/22 08:18:38;;;;;;;;;1.00;1.00;;;;;17.76;54.87;101048.22;146628;604;46010;-72
2024/04/22 08:21:48;;;;;;;;;1.00;1.00;;;;;17.67;54.47;101059.34;146626;602;46016;-72
2024/04/22 08:24:47;;;;;;;;;0.00;0.00;;;;;17.55;54.78;101073.00;146626;571;47020;-74
2024/04/22 08:27:51;;;;;;;;;2.00;2.00;;;;;17.43;53.82;101063.91;146621;654;47012;-74
2024/04/22 08:30:47;;;;;;;;;1.00;1.00;;;;;17.37;55.31;101067.22;146626;566;47010;-74
2024/04/22 08:33:44;;;;;;;;;2.00;1.00;;;;;17.34;56.28;101064.50;146624;578;46915;-73
2024/04/22 08:36:45;;;;;;;;;2.25;1.00;;;;;17.28;55.98;101075.69;146628;602;47010;-74
2024/04/22 08:39:43;;;;;;;;;2.33;1.67;;;;;17.27;55.12;101087.03;146626;616;47012;-73
2024/04/22 08:42:38;;;;;;;;;2.00;2.00;;;;;17.26;55.67;101100.09;146631;662;47010;-73
2024/04/22 08:45:51;;;;;;;;;1.00;1.00;;;;;17.23;55.96;101100.91;146624;672;47012;-72
2024/04/22 08:48:52;;;;;;;;;2.00;1.00;;;;;17.22;55.96;101086.00;146626;584;47012;-73
2024/04/22 08:51:46;;;;;;;;;2.00;1.00;;;;;17.24;56.29;101092.19;146623;581;47012;-72
2024/04/22 08:54:45;;;;;;;;;2.50;2.00;;;;;17.23;55.62;101108.75;146628;573;47010;-72
2024/04/22 08:57:50;;;;;;;;;3.00;2.33;;;;;17.21;55.84;101107.81;146623;564;47013;-73
2024/04/22 09:00:58;;;;;;;;;;;;;;;;;;;;;
2024/04/22 09:03:58;;;;;;;;;2.00;1.00;;;;;17.16;55.34;101125.13;146614;574;46017;-73
2024/04/22 09:06:56;;;;;;;;;1.00;1.00;;;;;17.16;55.92;101130.34;146619;586;48010;-73
2024/04/22 09:10:06;;;;;;;;;1.67;1.67;;;;;17.18;55.82;101133.94;146617;578;46016;-73
2024/04/22 09:13:15;;;;;;;;;2.00;1.00;;;;;17.23;55.44;101132.34;146623;576;47012;-73
2024/04/22 09:16:15;;;;;;;;;2.67;2.00;;;;;17.28;55.72;101137.72;146621;603;46012;-73
2024/04/22 09:19:35;;;;;;;;;0.00;0.00;;;;;16.69;54.54;101034.56;146626;571;46011;-73
2024/04/22 09:22:46;;;;;;;;;2.00;1.00;;;;;17.29;55.20;101144.75;146614;710;47012;-73
2024/04/22 09:25:59;;;;;;;;;2.00;2.00;;;;;17.28;56.07;101151.69;146623;577;46010;-74
2024/04/22 09:29:06;;;;;;;;;2.00;2.00;;;;;17.29;55.09;101140.41;146617;585;47014;-72
2024/04/22 09:32:26;;;;;;;;;3.00;2.00;;;;;17.32;55.51;101144.84;146620;690;47010;-72
2024/04/22 09:35:36;;;;;;;;;2.50;2.00;;;;;17.34;55.63;101134.41;146616;678;46012;-73
2024/04/22 09:38:38;;;;;;;;;3.00;2.00;;;;;17.34;56.42;101134.41;146621;668;46010;-73
2024/04/22 09:41:44;;;;;;;;;3.00;3.00;;;;;17.24;55.56;101136.72;146616;642;46016;-72
2024/04/22 09:45:16;;;;;;;;;;;;;;;;;;;;;
2024/04/22 09:48:28;;;;;;;;;5.00;4.00;;;;;17.09;56.60;101124.03;146617;643;47915;-72
2024/04/22 09:51:32;;;;;;;;;3.75;3.25;;;;;17.13;56.44;101116.28;146621;656;46020;-72
2024/04/22 09:54:36;;;;;;;;;4.50;4.00;;;;;17.03;57.33;101121.22;146618;666;46016;-73
2024/04/22 09:57:41;;;;;;;;;6.00;5.50;;;;;16.98;57.48;101125.47;146621;604;46021;-72
2024/04/22 10:00:39;;;;;;;;;4.00;4.00;;;;;16.87;57.16;101116.34;146615;573;47012;-74
2024/04/22 10:03:52;;;;;;;;;6.50;4.50;;;;;16.79;55.29;101130.91;146622;646;46010;-72
2024/04/22 10:07:01;;;;;;;;;5.25;5.00;;;;;16.75;57.92;101118.53;146618;577;46913;-72
2024/04/22 10:10:04;;;;;;;;;8.25;8.25;;;;;16.65;56.46;101127.84;146623;601;46020;-72
2024/04/22 10:13:06;;;;;;;;;11.00;8.00;;;;;16.50;57.76;101125.59;146618;578;47012;-72
2024/04/22 10:16:10;;;;;;;;;7.25;5.75;;;;;16.51;56.95;101122.16;146623;639;46020;-71
2024/04/22 10:19:36;;;;;;;;;7.50;5.25;;;;;16.56;56.85;101120.56;146615;656;46016;-72
2024/04/22 10:22:49;;;;;;;;;3.00;3.00;;;;;16.56;57.02;101115.31;146623;630;46020;-73
2024/04/22 10:25:53;;;;;;;;;5.00;5.00;;;;;16.62;56.88;101109.41;146615;692;46031;-74
2024/04/22 10:29:17;;;;;;;;;3.50;3.00;;;;;16.65;57.73;101113.84;146625;725;46010;-74
2024/04/22 10:32:13;;;;;;;;;7.00;4.75;;;;;16.73;57.80;101108.03;146615;602;46016;-71
2024/04/22 10:35:14;;;;;;;;;6.75;6.00;;;;;16.80;57.45;101103.91;146621;623;46020;-71
2024/04/22 10:38:18;;;;;;;;;6.00;5.50;;;;;16.92;57.27;101106.03;146617;599;47012;-77
2024/04/22 10:41:30;;;;;;;;;2.00;2.00;;;;;16.62;56.41;101029.13;146620;632;47010;-71
2024/04/22 10:44:41;;;;;;;;;4.00;3.00;;;;;16.76;55.90;101050.56;146617;652;46016;-71
2024/04/22 10:47:41;;;;;;;;;3.25;2.00;;;;;17.21;56.53;101112.16;146622;579;46010;-70
2024/04/22 10:50:55;;;;;;;;;3.00;3.00;;;;;17.24;55.90;101104.41;146617;628;47016;-72
2024/04/22 10:54:42;;;;;;;;;1.25;1.25;;;;;17.14;56.65;101094.50;146624;641;46010;-71
2024/04/22 10:57:42;;;;;;;;;2.00;2.00;;;;;17.12;56.54;101096.16;146616;571;47012;-72
2024/04/22 11:00:41;;;;;;;;;1.00;1.00;;;;;17.13;57.25;101092.69;146622;586;46020;-72
2024/04/22 11:03:38;;;;;;;;;1.00;1.00;;;;;17.15;56.97;101091.03;146616;685;47013;-71
2024/04/22 11:06:40;;;;;;;;;4.25;3.50;;;;;17.15;56.46;101075.31;146620;596;46020;-71
2024/04/22 11:09:57;;;;;;;;;4.75;3.25;;;;;17.17;57.22;101081.50;146616;649;46915;-71
2024/04/22 11:13:00;;;;;;;;;2.25;1.75;;;;;17.14;56.78;101079.66;146618;624;47020;-70
2024/04/22 11:16:16;;;;;;;;;3.75;2.00;;;;;17.17;57.26;101068.38;146616;691;47012;-72
2024/04/22 11:19:18;;;;;;;;;5.00;2.75;;;;;17.26;56.06;101079.16;146623;679;46026;-73
2024/04/22 11:22:21;;;;;;;;;3.50;3.50;;;;;17.27;57.52;101086.16;146618;595;47012;-72
2024/04/22 11:25:17;;;;;;;;;2.75;2.25;;;;;17.29;56.36;101074.88;146621;662;46021;-72
2024/04/22 11:28:36;;;;;;;;;2.67;2.00;;;;;17.28;56.44;101088.81;146618;602;46016;-72
2024/04/22 11:31:41;;;;;;;;;3.00;1.00;;;;;17.28;57.35;101078.31;146620;587;47013;-73
2024/04/22 11:34:45;;;;;;;;;1.00;1.00;;;;;17.31;56.86;101077.53;146616;665;46016;-72
2024/04/22 11:37:50;;;;;;;;;2.00;1.00;;;;;17.35;56.77;101094.22;146623;634;46010;-72
2024/04/22 11:41:04;;;;;;;;;0.00;0.00;;;;;17.38;55.24;101084.72;146619;571;46033;-71
2024/04/22 11:44:20;;;;;;;;;1.00;1.00;;;;;17.42;56.84;101083.97;146619;595;46020;-73
2024/04/22 11:47:16;;;;;;;;;0.00;0.00;;;;;17.48;56.85;101096.38;146619;582;46035;-72
2024/04/22 11:50:15;;;;;;;;;2.00;0.67;;;;;17.57;56.50;101085.25;146622;564;46020;-72
2024/04/22 11:53:21;;;;;;;;;1.33;0.00;;;;;17.63;56.29;101083.72;146617;581;46017;-70
2024/04/22 11:56:30;;;;;;;;;0.00;0.00;;;;;17.71;56.20;101074.31;146624;658;46020;-71
2024/04/22 11:59:30;;;;;;;;;1.00;1.00;;;;;17.82;55.88;101073.75;146614;615;47014;-71
2024/04/22 12:02:34;;;;;;;;;1.00;1.00;;;;;17.93;55.59;101074.94;146625;617;46011;-70
2024/04/22 12:05:37;;;;;;;;;0.33;0.33;;;;;17.65;55.40;101011.19;146618;640;46912;-70
2024/04/22 12:08:51;;;;;;;;;1.25;0.75;;;;;18.09;54.12;101070.97;146621;570;46020;-71
2024/04/22 12:11:47;;;;;;;;;1.00;1.00;;;;;18.14;55.53;101062.38;146616;570;47014;-72
2024/04/22 12:14:51;;;;;;;;;1.00;1.00;;;;;18.24;54.51;101061.75;146624;569;46020;-71
2024/04/22 12:17:46;;;;;;;;;3.00;2.33;;;;;18.35;55.11;101063.75;146616;621;46033;-71
2024/04/22 12:21:04;;;;;;;;;2.00;2.00;;;;;18.48;54.73;101064.97;146622;659;46020;-73
2024/04/22 12:24:02;;;;;;;;;0.25;0.25;;;;;18.59;53.32;101047.72;146613;634;47012;-71
2024/04/22 12:26:59;;;;;;;;;1.00;1.00;;;;;18.68;53.40;101042.69;146621;570;46020;-72
2024/04/22 12:30:02;;;;;;;;;0.00;0.00;;;;;18.77;54.20;101050.81;146616;593;47014;-72
2024/04/22 12:33:03;;;;;;;;;0.00;0.00;;;;;18.84;52.67;101052.72;146621;564;46032;-71
2024/04/22 12:35:57;;;;;;;;;1.00;1.00;;;;;18.88;52.71;101053.69;146617;579;47012;-73
2024/04/22 12:38:50;;;;;;;;;0.33;0.00;;;;;18.85;52.77;101036.13;146620;573;48010;-73
2024/04/22 12:41:53;;;;;;;;;0.00;0.00;;;;;18.84;52.32;101026.44;146621;575;46016;-71
2024/04/22 12:44:50;;;;;;;;;2.00;1.00;;;;;18.87;52.67;101023.87;146621;580;47012;-73
2024/04/22 12:51:10;;;;;;;;;1.67;1.67;;;;;18.61;51.78;100940.97;146621;595;46020;-73
2024/04/22 12:54:23;;;;;;;;;1.00;1.00;;;;;19.08;52.03;101012.06;146614;632;46017;-73
2024/04/22 12:57:42;;;;;;;;;2.00;2.00;;;;;19.11;51.75;101007.75;146621;664;47012;-72
2024/04/22 13:00:34;;;;;;;;;0.33;0.33;;;;;19.13;52.58;101003.44;146620;578;47013;-72
2024/04/22 13:03:29;;;;;;;;;1.00;1.00;;;;;19.09;52.23;101003.31;146619;563;48012;-72
2024/04/22 13:06:30;;;;;;;;;2.00;2.00;;;;;19.06;52.02;101008.50;146616;637;47012;-72
2024/04/22 13:09:31;;;;;;;;;2.33;1.00;;;;;19.05;53.08;101006.75;146618;578;46012;-72
2024/04/22 13:12:40;;;;;;;;;0.67;0.33;;;;;18.65;52.05;100959.44;146615;586;47016;-72
2024/04/22 13:15:46;;;;;;;;;0.00;0.00;;;;;18.95;52.15;101007.44;146620;585;46030;-72
2024/04/22 13:18:45;;;;;;;;;1.00;1.00;;;;;18.92;53.46;101021.38;146619;575;46012;-70
2024/04/22 13:22:00;;;;;;;;;0.00;0.00;;;;;18.90;52.18;101009.94;146621;663;46010;-72
2024/04/22 13:25:08;;;;;;;;;1.33;0.67;;;;;18.93;52.10;101012.63;146616;566;47012;-74
2024/04/22 13:28:07;;;;;;;;;1.67;1.00;;;;;19.04;51.04;101003.25;146621;607;47010;-74
2024/04/22 13:31:37;;;;;;;;;1.00;0.00;;;;;19.16;51.06;101015.75;146620;621;46017;-72
2024/04/22 13:34:38;;;;;;;;;0.00;0.00;;;;;19.24;50.86;101016.78;146622;628;47010;-72
2024/04/22 13:37:33;;;;;;;;;1.00;1.00;;;;;19.30;49.60;101011.66;146618;574;47016;-72
2024/04/22 13:40:27;;;;;;;;;1.67;0.33;;;;;19.31;49.51;101015.16;146621;579;47035;-73
2024/04/22 13:43:34;;;;;;;;;3.00;1.75;;;;;19.27;49.48;101018.59;146613;641;47014;-73
2024/04/22 13:46:32;;;;;;;;;3.00;0.33;;;;;19.27;49.30;101006.34;146625;621;46010;-71
2024/04/22 13:49:39;;;;;;;;;1.33;1.33;;;;;19.29;50.14;101017.78;146614;631;48012;-72
2024/04/22 13:52:41;;;;;;;;;0.00;0.00;;;;;19.32;49.84;101011.72;146621;595;46011;-73
2024/04/22 13:55:33;;;;;;;;;0.00;0.00;;;;;19.34;49.19;101024.00;146615;634;47016;-71
2024/04/22 13:58:25;;;;;;;;;1.00;1.00;;;;;19.36;49.84;101010.91;146621;563;46020;-72
2024/04/22 14:01:29;;;;;;;;;0.33;0.33;;;;;19.35;49.99;101019.66;146616;604;46914;-71
2024/04/22 14:04:24;;;;;;;;;0.00;0.00;;;;;19.30;50.21;101014.28;146622;640;47010;-69
2024/04/22 14:07:23;;;;;;;;;1.00;1.00;;;;;19.19;50.31;101039.50;146617;573;47015;-71
2024/04/22 14:10:33;;;;;;;;;;;;;;;;;;;;;
2024/04/22 14:13:53;;;;;;;;;;;;;;;;;;;;;
2024/04/22 14:17:02;;;;;;;;;0.33;0.33;;;;;19.04;51.33;101028.66;146615;592;47020;-71
2024/04/22 14:20:07;;;;;;;;;0.33;0.33;;;;;19.00;51.37;101016.28;146616;683;46016;-70
2024/04/22 14:23:02;;;;;;;;;1.00;1.00;;;;;18.93;52.23;101020.50;146618;590;46021;-71
2024/04/22 14:26:03;;;;;;;;;0.00;0.00;;;;;18.92;51.38;101018.75;146619;571;46012;-70
2024/04/22 14:28:56;;;;;;;;;3.00;0.33;;;;;18.88;51.42;101022.16;146622;575;46020;-72
2024/04/22 14:31:51;;;;;;;;;0.00;0.00;;;;;18.87;51.23;101023.00;146617;573;46016;-72
2024/04/22 14:35:01;;;;;;;;;0.00;0.00;;;;;18.85;51.13;101014.22;146620;676;46020;-73
2024/04/22 14:38:23;;;;;;;;;0.00;0.00;;;;;18.19;50.81;100915.50;146618;610;46013;-73
2024/04/22 14:41:19;;;;;;;;;0.00;0.00;;;;;18.82;51.21;101027.28;146622;604;47023;-73
2024/04/22 14:44:36;;;;;;;;;0.33;0.33;;;;;18.16;51.24;100913.72;146617;577;47017;-72